Council, ID (83612)

9:54 PM MDT on August 23, 2016 (GMT -0600)
Kramer | | Change Station

Elev 4760 ft 44.89 °N, 116.66 °W | Updated 2 seconds ago

Clear
Clear
59.2 °F
Feels Like 59.2 °F
N
0.4
Wind Variable Wind from WNW
Gusts 2.5 mph

Today
High -- | Low -- °F
--% Chance of Precip.
Yesterday
High -- | Low -- °F
Precip. -- in
Pressure 30.12 in
Visibility 10.0 miles
Clouds Clear
Dew Point 30 °F
Humidity 33%
Rainfall 0.00 in
Snow Depth Not available.
6:58 AM 8:38 PM
Waning Gibbous, 61% visible
METAR KMYL 240351Z AUTO 36010KT 10SM CLR 17/M01 A3021 RMK AO2 SLP200 T01671006
Pressure 30.12 in
Visibility 10.0 miles
Clouds Clear
Dew Point 30 °F
Humidity 33%
Rainfall 0.00 in
Snow Depth Not available.
6:58 AM 8:38 PM
Waning Gibbous, 61% visible
METAR KMYL 240351Z AUTO 36010KT 10SM CLR 17/M01 A3021 RMK AO2 SLP200 T01671006

10-Day Weather Forecast

Almanac

Astronomy

Aug. 23, 2016 Rise Set
Actual Time
Civil Twilight
Nautical Twilight
Astronomical Twilight
Moon
Length of Visible Light
Length of Day
Tomorrow will be .
, % of the Moon is Illuminated

Today's Extremes

State Highs State Lows

Community

WunderPhotos

Upload Photos

1,934,539 photos uploaded!

WunderBlog® & News

Nearby

Air Quality

  Air Quality AQ Index Pollutant
Not available.

Snow Depth

Station Depth Elevation

Earthquake Activity

City Distance Mag. Time & Date
Minimum magnitude displayed is 2.5.

Coastal Water Temperatures

Place Temperature

Stations

Nearby Weather Stations

Station Location Temp. Windchill Dew Point Humidity Wind Precip. Elev Updated Type
                   

Watches & Warnings

There are currently no watches in effect.